sensor_id;sensor_type;location;lat;lon;timestamp;pressure;altitude;pressure_sealevel;temperature;humidity
28000;BME280;15328;50.860;10.562;2023-05-25T00:02:55;97217.38;;;9.10;58.31
28000;BME280;15328;50.860;10.562;2023-05-25T00:07:56;97226.91;;;9.05;58.70
28000;BME280;15328;50.860;10.562;2023-05-25T00:12:56;97236.03;;;9.02;58.43
28000;BME280;15328;50.860;10.562;2023-05-25T00:17:57;97230.09;;;9.00;58.59
28000;BME280;15328;50.860;10.562;2023-05-25T00:22:57;97226.75;;;8.91;58.74
28000;BME280;15328;50.860;10.562;2023-05-25T00:27:58;97227.94;;;8.89;59.13
28000;BME280;15328;50.860;10.562;2023-05-25T00:32:58;97234.28;;;8.88;58.63
28000;BME280;15328;50.860;10.562;2023-05-25T00:38:00;97238.06;;;8.79;59.22
28000;BME280;15328;50.860;10.562;2023-05-25T00:43:01;97235.03;;;8.82;58.91
28000;BME280;15328;50.860;10.562;2023-05-25T00:48:02;97229.81;;;8.74;58.85
28000;BME280;15328;50.860;10.562;2023-05-25T00:53:07;97241.00;;;8.69;59.81
28000;BME280;15328;50.860;10.562;2023-05-25T00:58:08;97230.91;;;8.79;59.04
28000;BME280;15328;50.860;10.562;2023-05-25T01:03:12;97231.09;;;8.78;59.57
28000;BME280;15328;50.860;10.562;2023-05-25T01:08:19;97235.31;;;8.72;59.29
28000;BME280;15328;50.860;10.562;2023-05-25T01:13:21;97238.78;;;8.73;59.73
28000;BME280;15328;50.860;10.562;2023-05-25T01:18:21;97238.50;;;8.82;59.84
28000;BME280;15328;50.860;10.562;2023-05-25T01:23:25;97236.66;;;8.83;60.12
28000;BME280;15328;50.860;10.562;2023-05-25T01:28:34;97240.84;;;8.92;60.46
28000;BME280;15328;50.860;10.562;2023-05-25T01:33:35;97239.84;;;8.93;60.39
28000;BME280;15328;50.860;10.562;2023-05-25T01:38:35;97234.16;;;8.96;59.89
28000;BME280;15328;50.860;10.562;2023-05-25T01:43:36;97231.41;;;9.04;60.21
28000;BME280;15328;50.860;10.562;2023-05-25T01:48:44;97224.59;;;9.02;59.91
28000;BME280;15328;50.860;10.562;2023-05-25T01:53:52;97224.66;;;8.87;60.23
28000;BME280;15328;50.860;10.562;2023-05-25T01:58:55;97218.53;;;8.86;60.32
28000;BME280;15328;50.860;10.562;2023-05-25T02:03:57;97224.84;;;8.85;60.14
28000;BME280;15328;50.860;10.562;2023-05-25T02:08:58;97225.81;;;8.78;60.06
28000;BME280;15328;50.860;10.562;2023-05-25T02:13:58;97225.91;;;8.70;61.11
28000;BME280;15328;50.860;10.562;2023-05-25T02:18:59;97231.50;;;8.60;60.65
28000;BME280;15328;50.860;10.562;2023-05-25T02:23:59;97236.44;;;8.48;60.67
28000;BME280;15328;50.860;10.562;2023-05-25T02:29:00;97231.50;;;8.45;60.75
28000;BME280;15328;50.860;10.562;2023-05-25T02:34:01;97220.81;;;8.39;61.03
28000;BME280;15328;50.860;10.562;2023-05-25T02:39:02;97217.16;;;8.40;61.68
28000;BME280;15328;50.860;10.562;2023-05-25T02:44:03;97217.16;;;8.40;61.71
28000;BME280;15328;50.860;10.562;2023-05-25T02:49:04;97215.97;;;8.42;62.05
28000;BME280;15328;50.860;10.562;2023-05-25T02:54:04;97225.19;;;8.46;62.08
28000;BME280;15328;50.860;10.562;2023-05-25T02:59:04;97225.50;;;8.51;61.81
28000;BME280;15328;50.860;10.562;2023-05-25T03:04:06;97219.88;;;8.61;61.76
28000;BME280;15328;50.860;10.562;2023-05-25T03:09:07;97217.22;;;8.61;61.52
28000;BME280;15328;50.860;10.562;2023-05-25T03:14:09;97215.53;;;8.53;61.92
28000;BME280;15328;50.860;10.562;2023-05-25T03:19:09;97221.91;;;8.44;62.36
28000;BME280;15328;50.860;10.562;2023-05-25T03:24:11;97224.94;;;8.41;62.35
28000;BME280;15328;50.860;10.562;2023-05-25T03:29:11;97227.31;;;8.36;62.64
28000;BME280;15328;50.860;10.562;2023-05-25T03:34:11;97231.25;;;8.40;62.59
28000;BME280;15328;50.860;10.562;2023-05-25T03:39:12;97237.44;;;8.47;62.81
28000;BME280;15328;50.860;10.562;2023-05-25T03:44:12;97234.28;;;8.52;62.41
28000;BME280;15328;50.860;10.562;2023-05-25T03:49:13;97240.22;;;8.54;63.01
28000;BME280;15328;50.860;10.562;2023-05-25T03:54:13;97249.81;;;8.55;63.17
28000;BME280;15328;50.860;10.562;2023-05-25T03:59:14;97254.38;;;8.61;63.14
28000;BME280;15328;50.860;10.562;2023-05-25T04:04:14;97252.97;;;8.65;62.82
28000;BME280;15328;50.860;10.562;2023-05-25T04:09:15;97259.09;;;8.65;63.11
28000;BME280;15328;50.860;10.562;2023-05-25T04:14:15;97252.69;;;8.75;63.20
28000;BME280;15328;50.860;10.562;2023-05-25T04:19:15;97251.97;;;8.81;63.16
28000;BME280;15328;50.860;10.562;2023-05-25T04:24:16;97251.19;;;8.87;63.40
28000;BME280;15328;50.860;10.562;2023-05-25T04:29:16;97264.88;;;9.05;62.82
28000;BME280;15328;50.860;10.562;2023-05-25T04:34:16;97264.13;;;9.11;63.16
28000;BME280;15328;50.860;10.562;2023-05-25T04:39:17;97272.94;;;9.33;62.77
28000;BME280;15328;50.860;10.562;2023-05-25T04:44:17;97273.66;;;9.48;62.87
28000;BME280;15328;50.860;10.562;2023-05-25T04:49:19;97277.28;;;9.62;62.62
28000;BME280;15328;50.860;10.562;2023-05-25T04:54:20;97285.34;;;9.75;62.15
28000;BME280;15328;50.860;10.562;2023-05-25T04:59:21;97284.47;;;9.89;61.94
28000;BME280;15328;50.860;10.562;2023-05-25T05:04:21;97284.06;;;9.93;61.57
28000;BME280;15328;50.860;10.562;2023-05-25T05:09:21;97288.50;;;10.13;61.76
28000;BME280;15328;50.860;10.562;2023-05-25T05:14:22;97292.69;;;10.23;62.17
28000;BME280;15328;50.860;10.562;2023-05-25T05:19:22;97296.31;;;10.43;61.92
28000;BME280;15328;50.860;10.562;2023-05-25T05:24:23;97306.03;;;10.64;61.54
28000;BME280;15328;50.860;10.562;2023-05-25T05:29:23;97322.28;;;10.82;61.80
28000;BME280;15328;50.860;10.562;2023-05-25T05:34:24;97312.97;;;10.99;61.49
28000;BME280;15328;50.860;10.562;2023-05-25T05:39:27;97321.19;;;11.18;61.29
28000;BME280;15328;50.860;10.562;2023-05-25T05:44:27;97323.94;;;11.37;61.46
28000;BME280;15328;50.860;10.562;2023-05-25T05:49:28;97337.31;;;11.70;60.39
28000;BME280;15328;50.860;10.562;2023-05-25T05:54:29;97350.44;;;11.72;60.10
28000;BME280;15328;50.860;10.562;2023-05-25T05:59:30;97353.72;;;11.67;60.07
28000;BME280;15328;50.860;10.562;2023-05-25T06:04:30;97351.66;;;11.76;59.72
28000;BME280;15328;50.860;10.562;2023-05-25T06:09:31;97357.69;;;11.78;59.37
28000;BME280;15328;50.860;10.562;2023-05-25T06:14:32;97354.59;;;11.81;59.11
28000;BME280;15328;50.860;10.562;2023-05-25T06:19:32;97357.88;;;11.90;59.92
28000;BME280;15328;50.860;10.562;2023-05-25T06:24:32;97364.84;;;11.84;60.40
28000;BME280;15328;50.860;10.562;2023-05-25T06:29:33;97365.69;;;11.85;60.44
28000;BME280;15328;50.860;10.562;2023-05-25T06:34:33;97376.47;;;11.76;60.54
28000;BME280;15328;50.860;10.562;2023-05-25T06:39:33;97372.03;;;11.84;61.18
28000;BME280;15328;50.860;10.562;2023-05-25T06:44:34;97373.47;;;11.93;61.20
28000;BME280;15328;50.860;10.562;2023-05-25T06:49:34;97369.56;;;11.89;60.93
28000;BME280;15328;50.860;10.562;2023-05-25T06:54:35;97373.69;;;11.85;61.26
28000;BME280;15328;50.860;10.562;2023-05-25T06:59:35;97367.13;;;11.81;61.01
28000;BME280;15328;50.860;10.562;2023-05-25T07:04:36;97363.44;;;11.88;61.08
28000;BME280;15328;50.860;10.562;2023-05-25T07:09:37;97369.00;;;12.06;61.41
28000;BME280;15328;50.860;10.562;2023-05-25T07:14:37;97367.72;;;12.02;60.92
28000;BME280;15328;50.860;10.562;2023-05-25T07:19:37;97374.91;;;11.95;61.53
28000;BME280;15328;50.860;10.562;2023-05-25T07:24:38;97370.22;;;12.17;61.79
28000;BME280;15328;50.860;10.562;2023-05-25T07:29:38;97365.28;;;12.34;61.56
28000;BME280;15328;50.860;10.562;2023-05-25T07:34:40;97373.69;;;12.64;61.19
28000;BME280;15328;50.860;10.562;2023-05-25T07:39:40;97380.81;;;12.77;60.00
28000;BME280;15328;50.860;10.562;2023-05-25T07:44:40;97381.41;;;12.92;60.01
28000;BME280;15328;50.860;10.562;2023-05-25T07:49:41;97387.09;;;13.22;59.00
28000;BME280;15328;50.860;10.562;2023-05-25T07:54:41;97386.34;;;13.53;58.87
28000;BME280;15328;50.860;10.562;2023-05-25T07:59:42;97399.84;;;13.65;57.06
28000;BME280;15328;50.860;10.562;2023-05-25T08:04:43;97406.97;;;13.84;56.36
28000;BME280;15328;50.860;10.562;2023-05-25T08:09:44;97405.66;;;13.93;56.42
28000;BME280;15328;50.860;10.562;2023-05-25T08:14:44;97404.63;;;13.94;55.54
28000;BME280;15328;50.860;10.562;2023-05-25T08:19:45;97398.03;;;13.97;55.26
28000;BME280;15328;50.860;10.562;2023-05-25T08:24:45;97411.88;;;13.87;55.31
28000;BME280;15328;50.860;10.562;2023-05-25T08:29:46;97402.31;;;13.66;54.91
28000;BME280;15328;50.860;10.562;2023-05-25T08:34:46;97409.09;;;13.69;56.20
28000;BME280;15328;50.860;10.562;2023-05-25T08:39:46;97416.03;;;13.83;55.47
28000;BME280;15328;50.860;10.562;2023-05-25T08:44:47;97412.16;;;14.10;55.36
28000;BME280;15328;50.860;10.562;2023-05-25T08:49:48;97417.53;;;14.35;55.60
28000;BME280;15328;50.860;10.562;2023-05-25T08:54:52;97422.09;;;14.84;54.92
28000;BME280;15328;50.860;10.562;2023-05-25T09:00:03;97430.81;;;15.17;53.49
28000;BME280;15328;50.860;10.562;2023-05-25T09:05:09;97426.50;;;15.70;52.77
28000;BME280;15328;50.860;10.562;2023-05-25T09:10:10;97428.41;;;15.82;50.82
28000;BME280;15328;50.860;10.562;2023-05-25T09:15:11;97432.72;;;16.13;50.87
28000;BME280;15328;50.860;10.562;2023-05-25T09:20:12;97436.03;;;16.26;49.79
28000;BME280;15328;50.860;10.562;2023-05-25T09:25:16;97434.66;;;16.77;50.24
28000;BME280;15328;50.860;10.562;2023-05-25T09:30:17;97436.63;;;17.17;48.01
28000;BME280;15328;50.860;10.562;2023-05-25T09:35:18;97445.03;;;17.32;47.59
28000;BME280;15328;50.860;10.562;2023-05-25T09:40:18;97431.41;;;17.50;46.61
28000;BME280;15328;50.860;10.562;2023-05-25T09:45:19;97443.59;;;17.41;45.27
28000;BME280;15328;50.860;10.562;2023-05-25T09:50:19;97438.34;;;17.35;45.03
28000;BME280;15328;50.860;10.562;2023-05-25T09:55:20;97433.13;;;18.08;44.45
28000;BME280;15328;50.860;10.562;2023-05-25T10:00:23;97438.88;;;18.74;41.59
28000;BME280;15328;50.860;10.562;2023-05-25T10:05:23;97443.59;;;19.78;40.84
28000;BME280;15328;50.860;10.562;2023-05-25T10:10:24;97446.56;;;20.84;38.77
28000;BME280;15328;50.860;10.562;2023-05-25T10:15:25;97452.03;;;21.88;36.94
28000;BME280;15328;50.860;10.562;2023-05-25T10:20:25;97455.66;;;22.09;35.77
28000;BME280;15328;50.860;10.562;2023-05-25T10:25:33;97449.00;;;22.93;34.40
28000;BME280;15328;50.860;10.562;2023-05-25T10:30:35;97441.69;;;23.94;33.53
28000;BME280;15328;50.860;10.562;2023-05-25T10:35:38;97442.09;;;24.21;30.64
28000;BME280;15328;50.860;10.562;2023-05-25T10:40:38;97436.88;;;23.76;30.76
28000;BME280;15328;50.860;10.562;2023-05-25T10:45:39;97430.88;;;23.79;31.35
28000;BME280;15328;50.860;10.562;2023-05-25T10:50:40;97431.38;;;22.86;32.49
28000;BME280;15328;50.860;10.562;2023-05-25T11:06:01;97430.25;;;22.56;31.89
28000;BME280;15328;50.860;10.562;2023-05-25T11:11:02;97428.94;;;22.84;33.56
28000;BME280;15328;50.860;10.562;2023-05-25T11:26:33;97426.44;;;23.23;31.08
28000;BME280;15328;50.860;10.562;2023-05-25T11:31:33;97424.81;;;23.22;31.67
28000;BME280;15328;50.860;10.562;2023-05-25T11:36:35;97416.72;;;23.02;30.86
28000;BME280;15328;50.860;10.562;2023-05-25T11:41:36;97407.22;;;23.04;32.04
28000;BME280;15328;50.860;10.562;2023-05-25T11:46:37;97405.53;;;23.34;30.74
28000;BME280;15328;50.860;10.562;2023-05-25T11:51:38;97410.72;;;23.10;31.39
28000;BME280;15328;50.860;10.562;2023-05-25T11:56:38;97403.91;;;23.33;31.49
28000;BME280;15328;50.860;10.562;2023-05-25T12:01:38;97414.13;;;23.51;30.71
28000;BME280;15328;50.860;10.562;2023-05-25T12:06:39;97407.75;;;23.91;30.37
28000;BME280;15328;50.860;10.562;2023-05-25T12:11:39;97405.25;;;24.00;29.97
28000;BME280;15328;50.860;10.562;2023-05-25T12:16:44;97393.66;;;24.33;30.39
28000;BME280;15328;50.860;10.562;2023-05-25T12:21:45;97402.34;;;23.81;30.39
28000;BME280;15328;50.860;10.562;2023-05-25T12:26:51;97399.47;;;23.52;31.71
28000;BME280;15328;50.860;10.562;2023-05-25T12:32:02;97399.56;;;23.96;30.77
28000;BME280;15328;50.860;10.562;2023-05-25T12:37:03;97382.53;;;23.86;30.66
28000;BME280;15328;50.860;10.562;2023-05-25T12:42:10;97391.22;;;23.88;30.36
28000;BME280;15328;50.860;10.562;2023-05-25T12:47:16;97380.47;;;23.52;30.54
28000;BME280;15328;50.860;10.562;2023-05-25T12:57:33;97378.19;;;22.59;32.22
28000;BME280;15328;50.860;10.562;2023-05-25T13:02:35;97378.69;;;23.17;31.82
28000;BME280;15328;50.860;10.562;2023-05-25T13:07:35;97380.28;;;23.28;31.41
28000;BME280;15328;50.860;10.562;2023-05-25T13:12:35;97382.38;;;23.47;31.41
28000;BME280;15328;50.860;10.562;2023-05-25T13:17:36;97371.38;;;23.12;31.31
28000;BME280;15328;50.860;10.562;2023-05-25T13:22:36;97364.91;;;22.63;33.16
28000;BME280;15328;50.860;10.562;2023-05-25T13:27:37;97376.31;;;22.90;33.70
28000;BME280;15328;50.860;10.562;2023-05-25T13:32:38;97368.44;;;22.33;33.07
28000;BME280;15328;50.860;10.562;2023-05-25T13:37:38;97369.81;;;22.30;33.60
28000;BME280;15328;50.860;10.562;2023-05-25T13:42:39;97366.75;;;21.96;33.41
28000;BME280;15328;50.860;10.562;2023-05-25T13:47:39;97359.16;;;21.98;33.92
28000;BME280;15328;50.860;10.562;2023-05-25T13:52:42;97365.16;;;22.05;33.63
28000;BME280;15328;50.860;10.562;2023-05-25T13:57:42;97353.22;;;22.01;33.81
28000;BME280;15328;50.860;10.562;2023-05-25T14:02:43;97357.75;;;21.75;32.99
28000;BME280;15328;50.860;10.562;2023-05-25T14:07:43;97351.19;;;21.51;33.86
28000;BME280;15328;50.860;10.562;2023-05-25T14:12:43;97350.00;;;21.26;34.28
28000;BME280;15328;50.860;10.562;2023-05-25T14:17:44;97359.59;;;21.07;34.59
28000;BME280;15328;50.860;10.562;2023-05-25T14:22:44;97353.19;;;20.76;34.81
28000;BME280;15328;50.860;10.562;2023-05-25T14:27:45;97350.16;;;20.62;34.88
28000;BME280;15328;50.860;10.562;2023-05-25T14:32:45;97341.63;;;20.44;34.49
28000;BME280;15328;50.860;10.562;2023-05-25T14:37:45;97343.44;;;20.06;36.00
28000;BME280;15328;50.860;10.562;2023-05-25T14:42:46;97327.84;;;19.86;36.52
28000;BME280;15328;50.860;10.562;2023-05-25T14:47:46;97336.25;;;19.90;37.06
28000;BME280;15328;50.860;10.562;2023-05-25T14:52:47;97348.53;;;19.75;37.35
28000;BME280;15328;50.860;10.562;2023-05-25T14:57:47;97341.84;;;19.56;36.93
28000;BME280;15328;50.860;10.562;2023-05-25T15:02:48;97338.50;;;19.27;37.31
28000;BME280;15328;50.860;10.562;2023-05-25T15:07:48;97339.06;;;19.07;37.28
28000;BME280;15328;50.860;10.562;2023-05-25T15:12:48;97325.63;;;19.12;38.01
28000;BME280;15328;50.860;10.562;2023-05-25T15:17:50;97329.31;;;19.23;38.69
28000;BME280;15328;50.860;10.562;2023-05-25T15:22:50;97325.38;;;19.36;38.62
28000;BME280;15328;50.860;10.562;2023-05-25T15:27:52;97326.34;;;19.25;37.33
28000;BME280;15328;50.860;10.562;2023-05-25T15:32:53;97332.09;;;19.11;38.10
28000;BME280;15328;50.860;10.562;2023-05-25T15:37:53;97320.19;;;19.07;38.77
28000;BME280;15328;50.860;10.562;2023-05-25T15:42:54;97320.81;;;19.14;38.91
28000;BME280;15328;50.860;10.562;2023-05-25T15:47:55;97330.13;;;19.24;39.41
28000;BME280;15328;50.860;10.562;2023-05-25T15:52:55;97319.69;;;19.32;39.17
28000;BME280;15328;50.860;10.562;2023-05-25T15:57:56;97320.31;;;19.39;39.57
28000;BME280;15328;50.860;10.562;2023-05-25T16:02:57;97320.81;;;19.58;39.05
28000;BME280;15328;50.860;10.562;2023-05-25T16:07:57;97315.22;;;19.65;39.03
28000;BME280;15328;50.860;10.562;2023-05-25T16:12:58;97311.72;;;19.64;38.64
28000;BME280;15328;50.860;10.562;2023-05-25T16:17:58;97315.16;;;19.60;38.29
28000;BME280;15328;50.860;10.562;2023-05-25T16:23:00;97314.53;;;19.53;38.83
28000;BME280;15328;50.860;10.562;2023-05-25T16:28:01;97314.47;;;19.48;38.57
28000;BME280;15328;50.860;10.562;2023-05-25T16:33:01;97316.28;;;19.42;39.04
28000;BME280;15328;50.860;10.562;2023-05-25T16:38:02;97309.59;;;19.23;39.07
28000;BME280;15328;50.860;10.562;2023-05-25T16:43:02;97307.72;;;19.23;39.37
28000;BME280;15328;50.860;10.562;2023-05-25T16:48:03;97312.25;;;19.18;39.50
28000;BME280;15328;50.860;10.562;2023-05-25T16:53:03;97305.38;;;19.10;39.36
28000;BME280;15328;50.860;10.562;2023-05-25T16:58:04;97308.03;;;19.05;39.75
28000;BME280;15328;50.860;10.562;2023-05-25T17:03:04;97308.22;;;18.98;39.96
28000;BME280;15328;50.860;10.562;2023-05-25T17:08:06;97304.91;;;18.91;40.41
28000;BME280;15328;50.860;10.562;2023-05-25T17:13:06;97299.66;;;18.84;40.87
28000;BME280;15328;50.860;10.562;2023-05-25T17:18:06;97299.09;;;18.82;41.03
28000;BME280;15328;50.860;10.562;2023-05-25T17:23:07;97301.66;;;18.72;40.98
28000;BME280;15328;50.860;10.562;2023-05-25T17:28:08;97304.63;;;18.71;41.51
28000;BME280;15328;50.860;10.562;2023-05-25T17:33:08;97303.06;;;18.75;41.77
28000;BME280;15328;50.860;10.562;2023-05-25T17:38:09;97304.13;;;18.74;41.34
28000;BME280;15328;50.860;10.562;2023-05-25T17:43:09;97319.53;;;18.62;41.26
28000;BME280;15328;50.860;10.562;2023-05-25T17:48:10;97315.94;;;18.56;41.17
28000;BME280;15328;50.860;10.562;2023-05-25T17:53:10;97317.13;;;18.43;41.40
28000;BME280;15328;50.860;10.562;2023-05-25T17:58:11;97309.59;;;18.29;41.73
28000;BME280;15328;50.860;10.562;2023-05-25T18:03:12;97306.59;;;18.25;41.82
28000;BME280;15328;50.860;10.562;2023-05-25T18:08:15;97318.84;;;18.16;42.44
28000;BME280;15328;50.860;10.562;2023-05-25T18:13:18;97307.81;;;18.01;43.14
28000;BME280;15328;50.860;10.562;2023-05-25T18:18:19;97313.50;;;17.87;43.30
28000;BME280;15328;50.860;10.562;2023-05-25T18:23:22;97319.66;;;17.71;43.81
28000;BME280;15328;50.860;10.562;2023-05-25T18:28:22;97320.84;;;17.64;44.26
28000;BME280;15328;50.860;10.562;2023-05-25T18:33:22;97320.44;;;17.55;44.34
28000;BME280;15328;50.860;10.562;2023-05-25T18:38:29;97322.81;;;17.40;44.82
28000;BME280;15328;50.860;10.562;2023-05-25T18:43:29;97331.03;;;17.33;45.08
28000;BME280;15328;50.860;10.562;2023-05-25T18:48:30;97336.66;;;17.32;45.26
28000;BME280;15328;50.860;10.562;2023-05-25T18:53:31;97344.63;;;17.26;45.70
28000;BME280;15328;50.860;10.562;2023-05-25T18:58:31;97338.31;;;17.21;46.46
28000;BME280;15328;50.860;10.562;2023-05-25T19:03:31;97354.31;;;17.16;47.09
28000;BME280;15328;50.860;10.562;2023-05-25T19:08:32;97355.06;;;16.99;47.76
28000;BME280;15328;50.860;10.562;2023-05-25T19:13:35;97356.81;;;16.94;48.50
28000;BME280;15328;50.860;10.562;2023-05-25T19:18:36;97354.63;;;16.79;48.93
28000;BME280;15328;50.860;10.562;2023-05-25T19:23:36;97364.22;;;16.75;49.28
28000;BME280;15328;50.860;10.562;2023-05-25T19:28:36;97376.09;;;16.67;49.06
28000;BME280;15328;50.860;10.562;2023-05-25T19:33:39;97384.38;;;16.54;49.33
28000;BME280;15328;50.860;10.562;2023-05-25T19:38:43;97388.81;;;16.49;49.00
28000;BME280;15328;50.860;10.562;2023-05-25T19:43:43;97397.53;;;16.32;49.46
28000;BME280;15328;50.860;10.562;2023-05-25T19:48:46;97400.06;;;16.16;49.73
28000;BME280;15328;50.860;10.562;2023-05-25T19:53:47;97398.16;;;16.04;49.85
28000;BME280;15328;50.860;10.562;2023-05-25T19:58:49;97399.09;;;15.98;49.78
28000;BME280;15328;50.860;10.562;2023-05-25T20:03:49;97413.06;;;15.89;50.08
28000;BME280;15328;50.860;10.562;2023-05-25T20:08:49;97414.88;;;15.76;50.47
28000;BME280;15328;50.860;10.562;2023-05-25T20:13:50;97418.69;;;15.69;50.84
28000;BME280;15328;50.860;10.562;2023-05-25T20:18:50;97428.97;;;15.72;50.76
28000;BME280;15328;50.860;10.562;2023-05-25T20:23:50;97433.13;;;15.68;50.92
28000;BME280;15328;50.860;10.562;2023-05-25T20:28:51;97436.28;;;15.65;51.28
28000;BME280;15328;50.860;10.562;2023-05-25T20:33:51;97429.88;;;15.66;50.97
28000;BME280;15328;50.860;10.562;2023-05-25T20:38:52;97436.94;;;15.60;51.29
28000;BME280;15328;50.860;10.562;2023-05-25T20:43:52;97434.38;;;15.47;51.58
28000;BME280;15328;50.860;10.562;2023-05-25T20:48:52;97432.69;;;15.34;51.82
28000;BME280;15328;50.860;10.562;2023-05-25T20:53:53;97430.50;;;15.25;51.85
28000;BME280;15328;50.860;10.562;2023-05-25T20:58:53;97438.34;;;15.08;52.27
28000;BME280;15328;50.860;10.562;2023-05-25T21:03:54;97436.81;;;14.94;52.20
28000;BME280;15328;50.860;10.562;2023-05-25T21:08:54;97444.06;;;14.68;53.43
28000;BME280;15328;50.860;10.562;2023-05-25T21:13:54;97447.00;;;14.60;53.65
28000;BME280;15328;50.860;10.562;2023-05-25T21:18:55;97447.28;;;14.52;53.57
28000;BME280;15328;50.860;10.562;2023-05-25T21:23:55;97457.28;;;14.32;53.23
28000;BME280;15328;50.860;10.562;2023-05-25T21:28:56;97447.25;;;14.20;53.76
28000;BME280;15328;50.860;10.562;2023-05-25T21:33:56;97458.84;;;14.14;53.58
28000;BME280;15328;50.860;10.562;2023-05-25T21:38:56;97451.72;;;13.95;53.89
28000;BME280;15328;50.860;10.562;2023-05-25T21:43:58;97460.88;;;13.81;55.16
28000;BME280;15328;50.860;10.562;2023-05-25T21:48:58;97457.44;;;13.67;54.95
28000;BME280;15328;50.860;10.562;2023-05-25T21:53:59;97455.84;;;13.53;55.61
28000;BME280;15328;50.860;10.562;2023-05-25T21:58:59;97455.50;;;13.43;55.97
28000;BME280;15328;50.860;10.562;2023-05-25T22:03:59;97458.78;;;13.32;57.10
28000;BME280;15328;50.860;10.562;2023-05-25T22:09:00;97459.84;;;13.24;57.00
28000;BME280;15328;50.860;10.562;2023-05-25T22:14:00;97462.50;;;13.11;56.81
28000;BME280;15328;50.860;10.562;2023-05-25T22:19:02;97453.91;;;13.02;57.50
28000;BME280;15328;50.860;10.562;2023-05-25T22:24:02;97453.09;;;12.95;57.15
28000;BME280;15328;50.860;10.562;2023-05-25T22:29:03;97452.91;;;12.90;57.52
28000;BME280;15328;50.860;10.562;2023-05-25T22:34:03;97443.66;;;12.86;57.51
28000;BME280;15328;50.860;10.562;2023-05-25T22:39:04;97457.44;;;12.63;58.23
28000;BME280;15328;50.860;10.562;2023-05-25T22:44:04;97464.44;;;12.64;57.81
28000;BME280;15328;50.860;10.562;2023-05-25T22:49:04;97456.63;;;12.62;57.56
28000;BME280;15328;50.860;10.562;2023-05-25T22:54:05;97457.84;;;12.53;57.68
28000;BME280;15328;50.860;10.562;2023-05-25T22:59:05;97464.84;;;12.34;58.60
28000;BME280;15328;50.860;10.562;2023-05-25T23:04:05;97454.75;;;12.30;58.83
28000;BME280;15328;50.860;10.562;2023-05-25T23:09:06;97457.22;;;12.31;58.57
28000;BME280;15328;50.860;10.562;2023-05-25T23:14:06;97463.97;;;12.27;58.78
28000;BME280;15328;50.860;10.562;2023-05-25T23:19:07;97458.44;;;12.29;58.91
28000;BME280;15328;50.860;10.562;2023-05-25T23:24:07;97451.88;;;12.25;58.77
28000;BME280;15328;50.860;10.562;2023-05-25T23:29:07;97457.63;;;12.28;58.40
28000;BME280;15328;50.860;10.562;2023-05-25T23:34:08;97460.28;;;12.22;58.55
28000;BME280;15328;50.860;10.562;2023-05-25T23:39:08;97448.38;;;12.24;58.75
28000;BME280;15328;50.860;10.562;2023-05-25T23:44:08;97446.53;;;12.18;59.00
28000;BME280;15328;50.860;10.562;2023-05-25T23:49:09;97445.31;;;12.14;58.79
28000;BME280;15328;50.860;10.562;2023-05-25T23:54:09;97451.03;;;12.11;58.98
28000;BME280;15328;50.860;10.562;2023-05-25T23:59:10;97452.91;;;12.11;58.67
